ZSMUL FCOI-FZAA
Flight info
| Callsign | ZSMUL |
|---|---|
| Flight time | 1h 53m |
| Altitude | 13000 |
| Route | ARERI ATS29 MBA/N0206F120 V30 GUSAR |
| Aircraft | DC6/M-SDE1FGHIRWXY/S |
Departure
| Time | 2026-05-07 13:23 |
|---|---|
| Airport | Impfondo Airport (FCOI) |
Arrival
| Time | 2026-05-07 15:17 |
|---|---|
| Airport | Ndjili International Airport (FZAA) |
| Time | Latitude | Longitude | Altitude | Speed | Heading |
|---|---|---|---|---|---|
| 2026-05-07 13:06 | 1.59240 | 18.05076 | 1063 ft | 0 kts | 27° |
| 2026-05-07 13:10 | 1.59239 | 18.05076 | 1063 ft | 0 kts | 27° |
| 2026-05-07 13:11 | 1.59234 | 18.05073 | 1063 ft | 3 kts | 27° |
| 2026-05-07 13:12 | 1.59217 | 18.05065 | 1060 ft | 3 kts | 27° |
| 2026-05-07 13:12 | 1.59204 | 18.05058 | 1060 ft | 0 kts | 27° |
| 2026-05-07 13:16 | 1.59206 | 18.05059 | 1060 ft | 0 kts | 31° |
| 2026-05-07 13:17 | 1.59211 | 18.05062 | 1060 ft | 1 kts | 32° |
| 2026-05-07 13:17 | 1.59217 | 18.05065 | 1060 ft | 0 kts | 10° |
| 2026-05-07 13:17 | 1.59219 | 18.05065 | 1060 ft | 0 kts | 350° |
| 2026-05-07 13:17 | 1.59221 | 18.05064 | 1060 ft | 1 kts | 322° |
| 2026-05-07 13:18 | 1.59223 | 18.05058 | 1060 ft | 1 kts | 260° |
| 2026-05-07 13:18 | 1.59218 | 18.05053 | 1061 ft | 1 kts | 194° |
| 2026-05-07 13:18 | 1.59189 | 18.05053 | 1061 ft | 7 kts | 172° |
| 2026-05-07 13:18 | 1.59118 | 18.05064 | 1058 ft | 13 kts | 172° |
| 2026-05-07 13:19 | 1.59032 | 18.05096 | 1056 ft | 11 kts | 119° |
| 2026-05-07 13:19 | 1.59033 | 18.05158 | 1055 ft | 8 kts | 81° |
| 2026-05-07 13:19 | 1.59043 | 18.05223 | 1055 ft | 12 kts | 81° |
| 2026-05-07 13:19 | 1.59059 | 18.05317 | 1056 ft | 16 kts | 81° |
| 2026-05-07 13:20 | 1.59079 | 18.05431 | 1058 ft | 16 kts | 79° |
| 2026-05-07 13:20 | 1.59096 | 18.05524 | 1060 ft | 11 kts | 68° |
| 2026-05-07 13:20 | 1.59118 | 18.05562 | 1060 ft | 1 kts | 90° |
| 2026-05-07 13:20 | 1.59115 | 18.05567 | 1060 ft | 1 kts | 153° |
| 2026-05-07 13:21 | 1.59102 | 18.05561 | 1060 ft | 3 kts | 247° |
| 2026-05-07 13:21 | 1.59098 | 18.05542 | 1060 ft | 5 kts | 260° |
| 2026-05-07 13:21 | 1.59071 | 18.05389 | 1057 ft | 43 kts | 260° |
| 2026-05-07 13:21 | 1.59003 | 18.04973 | 1055 ft | 79 kts | 260° |
| 2026-05-07 13:22 | 1.58893 | 18.04328 | 1065 ft | 107 kts | 261° |
| 2026-05-07 13:22 | 1.58764 | 18.03545 | 1133 ft | 119 kts | 258° |
| 2026-05-07 13:22 | 1.58611 | 18.02709 | 1239 ft | 127 kts | 257° |
| 2026-05-07 13:22 | 1.58316 | 18.01855 | 1349 ft | 133 kts | 234° |
| 2026-05-07 13:23 | 1.57581 | 18.01278 | 1442 ft | 142 kts | 200° |
| 2026-05-07 13:23 | 1.56576 | 18.01206 | 1523 ft | 153 kts | 167° |
| 2026-05-07 13:23 | 1.55578 | 18.01626 | 1683 ft | 159 kts | 145° |
| 2026-05-07 13:23 | 1.54763 | 18.02388 | 1905 ft | 161 kts | 136° |
| 2026-05-07 13:24 | 1.53982 | 18.03191 | 2064 ft | 166 kts | 134° |
| 2026-05-07 13:24 | 1.53183 | 18.04035 | 2260 ft | 168 kts | 135° |
| 2026-05-07 13:24 | 1.52359 | 18.04874 | 2424 ft | 171 kts | 134° |
| 2026-05-07 13:24 | 1.51532 | 18.05724 | 2619 ft | 169 kts | 135° |
| 2026-05-07 13:25 | 1.50704 | 18.06565 | 2801 ft | 171 kts | 135° |
| 2026-05-07 13:25 | 1.49979 | 18.07504 | 2978 ft | 173 kts | 115° |
| 2026-05-07 13:25 | 1.49459 | 18.08585 | 3133 ft | 172 kts | 123° |
| 2026-05-07 13:25 | 1.48691 | 18.09502 | 3319 ft | 172 kts | 137° |
| 2026-05-07 13:26 | 1.47687 | 18.10152 | 3457 ft | 173 kts | 155° |
| 2026-05-07 13:26 | 1.46591 | 18.10640 | 3639 ft | 173 kts | 156° |
| 2026-05-07 13:26 | 1.45507 | 18.11124 | 3785 ft | 173 kts | 156° |
| 2026-05-07 13:26 | 1.44406 | 18.11612 | 3946 ft | 174 kts | 156° |
| 2026-05-07 13:27 | 1.43302 | 18.12106 | 4121 ft | 174 kts | 156° |
| 2026-05-07 13:27 | 1.42195 | 18.12600 | 4275 ft | 174 kts | 156° |
| 2026-05-07 13:27 | 1.41088 | 18.13094 | 4440 ft | 175 kts | 156° |
| 2026-05-07 13:27 | 1.39978 | 18.13592 | 4606 ft | 175 kts | 156° |
| 2026-05-07 13:28 | 1.38866 | 18.14086 | 4764 ft | 175 kts | 156° |
| 2026-05-07 13:28 | 1.37754 | 18.14585 | 4919 ft | 175 kts | 156° |
| 2026-05-07 13:28 | 1.36641 | 18.15081 | 5083 ft | 175 kts | 156° |
| 2026-05-07 13:28 | 1.35531 | 18.15578 | 5249 ft | 175 kts | 156° |
| 2026-05-07 13:29 | 1.34433 | 18.16068 | 5416 ft | 175 kts | 156° |
| 2026-05-07 13:29 | 1.33318 | 18.16567 | 5583 ft | 176 kts | 155° |
| 2026-05-07 13:29 | 1.32201 | 18.17066 | 5740 ft | 176 kts | 155° |
| 2026-05-07 13:29 | 1.31080 | 18.17566 | 5889 ft | 176 kts | 155° |
| 2026-05-07 13:30 | 1.29962 | 18.18067 | 6050 ft | 176 kts | 155° |
| 2026-05-07 13:30 | 1.28844 | 18.18566 | 6199 ft | 176 kts | 155° |
| 2026-05-07 13:30 | 1.27724 | 18.19065 | 6348 ft | 176 kts | 155° |
| 2026-05-07 13:30 | 1.26604 | 18.19567 | 6490 ft | 176 kts | 154° |
| 2026-05-07 13:31 | 1.25496 | 18.20060 | 6616 ft | 177 kts | 154° |
| 2026-05-07 13:31 | 1.24375 | 18.20564 | 6756 ft | 177 kts | 154° |
| 2026-05-07 13:31 | 1.23251 | 18.21064 | 6898 ft | 177 kts | 154° |
| 2026-05-07 13:31 | 1.22126 | 18.21567 | 7037 ft | 177 kts | 154° |
| 2026-05-07 13:32 | 1.21000 | 18.22071 | 7158 ft | 178 kts | 153° |
| 2026-05-07 13:32 | 1.19869 | 18.22577 | 7294 ft | 179 kts | 153° |
| 2026-05-07 13:32 | 1.18731 | 18.23085 | 7439 ft | 179 kts | 153° |
| 2026-05-07 13:32 | 1.17590 | 18.23593 | 7585 ft | 180 kts | 153° |
| 2026-05-07 13:33 | 1.16464 | 18.24100 | 7724 ft | 180 kts | 153° |
| 2026-05-07 13:33 | 1.15316 | 18.24612 | 7864 ft | 181 kts | 152° |
| 2026-05-07 13:33 | 1.14168 | 18.25125 | 8007 ft | 181 kts | 153° |
| 2026-05-07 13:33 | 1.13015 | 18.25638 | 8143 ft | 181 kts | 152° |
| 2026-05-07 13:34 | 1.11864 | 18.26154 | 8288 ft | 182 kts | 152° |
| 2026-05-07 13:34 | 1.09557 | 18.27185 | 8563 ft | 182 kts | 151° |
| 2026-05-07 13:34 | 1.08403 | 18.27701 | 8698 ft | 182 kts | 151° |
| 2026-05-07 13:35 | 1.07249 | 18.28214 | 8828 ft | 182 kts | 151° |
| 2026-05-07 13:35 | 1.06113 | 18.28723 | 8951 ft | 181 kts | 150° |
| 2026-05-07 13:35 | 1.04960 | 18.29238 | 9071 ft | 181 kts | 150° |
| 2026-05-07 13:35 | 1.03808 | 18.29753 | 9196 ft | 181 kts | 150° |
| 2026-05-07 13:36 | 1.02656 | 18.30267 | 9311 ft | 181 kts | 150° |
| 2026-05-07 13:36 | 1.01503 | 18.30783 | 9429 ft | 182 kts | 150° |
| 2026-05-07 13:36 | 1.00350 | 18.31297 | 9535 ft | 181 kts | 150° |
| 2026-05-07 13:36 | 0.99197 | 18.31812 | 9647 ft | 182 kts | 150° |
| 2026-05-07 13:37 | 0.98035 | 18.32332 | 9775 ft | 184 kts | 149° |
| 2026-05-07 13:37 | 0.96882 | 18.32848 | 9892 ft | 185 kts | 150° |
| 2026-05-07 13:37 | 0.95706 | 18.33372 | 10027 ft | 185 kts | 149° |
| 2026-05-07 13:37 | 0.94526 | 18.33900 | 10146 ft | 186 kts | 150° |
| 2026-05-07 13:38 | 0.93344 | 18.34427 | 10280 ft | 186 kts | 150° |
| 2026-05-07 13:38 | 0.92162 | 18.34957 | 10405 ft | 187 kts | 150° |
| 2026-05-07 13:38 | 0.90974 | 18.35486 | 10525 ft | 187 kts | 150° |
| 2026-05-07 13:38 | 0.89786 | 18.36018 | 10666 ft | 187 kts | 150° |
| 2026-05-07 13:39 | 0.88589 | 18.36535 | 10786 ft | 189 kts | 154° |
| 2026-05-07 13:39 | 0.87273 | 18.36670 | 10853 ft | 199 kts | 182° |
| 2026-05-07 13:39 | 0.85908 | 18.36446 | 10996 ft | 198 kts | 184° |
| 2026-05-07 13:39 | 0.84541 | 18.36300 | 11122 ft | 197 kts | 180° |
| 2026-05-07 13:40 | 0.83173 | 18.36177 | 11247 ft | 198 kts | 181° |
| 2026-05-07 13:40 | 0.81803 | 18.36046 | 11371 ft | 198 kts | 180° |
| 2026-05-07 13:40 | 0.80432 | 18.35914 | 11506 ft | 198 kts | 180° |
| 2026-05-07 13:40 | 0.79059 | 18.35781 | 11628 ft | 198 kts | 181° |
| 2026-05-07 13:41 | 0.77688 | 18.35650 | 11763 ft | 198 kts | 180° |
| 2026-05-07 13:41 | 0.76317 | 18.35522 | 11890 ft | 198 kts | 180° |
| 2026-05-07 13:41 | 0.74947 | 18.35395 | 12007 ft | 199 kts | 181° |
| 2026-05-07 13:41 | 0.73572 | 18.35257 | 11985 ft | 202 kts | 181° |
| 2026-05-07 13:42 | 0.72170 | 18.35125 | 11989 ft | 203 kts | 181° |
| 2026-05-07 13:42 | 0.70768 | 18.34991 | 11989 ft | 202 kts | 181° |
| 2026-05-07 13:42 | 0.69367 | 18.34855 | 11988 ft | 202 kts | 181° |
| 2026-05-07 13:42 | 0.67967 | 18.34725 | 11985 ft | 202 kts | 181° |
| 2026-05-07 13:43 | 0.66567 | 18.34591 | 11997 ft | 202 kts | 181° |
| 2026-05-07 13:43 | 0.65166 | 18.34456 | 11983 ft | 202 kts | 181° |
| 2026-05-07 13:43 | 0.63766 | 18.34323 | 11985 ft | 202 kts | 181° |
| 2026-05-07 13:43 | 0.62368 | 18.34191 | 11985 ft | 201 kts | 181° |
| 2026-05-07 13:44 | 0.60993 | 18.34059 | 11982 ft | 201 kts | 181° |
| 2026-05-07 13:44 | 0.59600 | 18.33926 | 11982 ft | 201 kts | 181° |
| 2026-05-07 13:44 | 0.58209 | 18.33794 | 11982 ft | 201 kts | 181° |
| 2026-05-07 13:44 | 0.56820 | 18.33659 | 11980 ft | 200 kts | 181° |
| 2026-05-07 13:45 | 0.55433 | 18.33530 | 11977 ft | 200 kts | 181° |
| 2026-05-07 13:45 | 0.54049 | 18.33396 | 11976 ft | 200 kts | 181° |
| 2026-05-07 13:45 | 0.52666 | 18.33264 | 11972 ft | 199 kts | 181° |
| 2026-05-07 13:45 | 0.51290 | 18.33133 | 11972 ft | 199 kts | 181° |
| 2026-05-07 13:46 | 0.49914 | 18.33002 | 11974 ft | 198 kts | 181° |
| 2026-05-07 13:46 | 0.48560 | 18.32872 | 11973 ft | 198 kts | 181° |
| 2026-05-07 13:46 | 0.47187 | 18.32743 | 11973 ft | 198 kts | 181° |
| 2026-05-07 13:46 | 0.45820 | 18.32611 | 11974 ft | 197 kts | 181° |
| 2026-05-07 13:47 | 0.44455 | 18.32482 | 11972 ft | 197 kts | 181° |
| 2026-05-07 13:47 | 0.43091 | 18.32351 | 11976 ft | 197 kts | 181° |
| 2026-05-07 13:47 | 0.41722 | 18.32220 | 11979 ft | 198 kts | 181° |
| 2026-05-07 13:47 | 0.40349 | 18.32091 | 11983 ft | 199 kts | 181° |
| 2026-05-07 13:48 | 0.38970 | 18.31961 | 11987 ft | 199 kts | 181° |
| 2026-05-07 13:48 | 0.37587 | 18.31825 | 11990 ft | 200 kts | 181° |
| 2026-05-07 13:48 | 0.36217 | 18.31696 | 11994 ft | 201 kts | 181° |
| 2026-05-07 13:48 | 0.34821 | 18.31564 | 11988 ft | 202 kts | 181° |
| 2026-05-07 13:49 | 0.33417 | 18.31429 | 11986 ft | 203 kts | 181° |
| 2026-05-07 13:49 | 0.32004 | 18.31295 | 11987 ft | 205 kts | 181° |
| 2026-05-07 13:49 | 0.30581 | 18.31158 | 11992 ft | 206 kts | 181° |
| 2026-05-07 13:49 | 0.29148 | 18.31023 | 11991 ft | 207 kts | 181° |
| 2026-05-07 13:50 | 0.27706 | 18.30884 | 11988 ft | 208 kts | 181° |
| 2026-05-07 13:50 | 0.26260 | 18.30746 | 11984 ft | 210 kts | 181° |
| 2026-05-07 13:50 | 0.24825 | 18.30610 | 11988 ft | 210 kts | 181° |
| 2026-05-07 13:50 | 0.23364 | 18.30470 | 11985 ft | 211 kts | 181° |
| 2026-05-07 13:51 | 0.21896 | 18.30331 | 11989 ft | 212 kts | 181° |
| 2026-05-07 13:51 | 0.20421 | 18.30189 | 11984 ft | 213 kts | 181° |
| 2026-05-07 13:51 | 0.18941 | 18.30049 | 11990 ft | 214 kts | 181° |
| 2026-05-07 13:51 | 0.17644 | 18.29924 | 11985 ft | 215 kts | 181° |
| 2026-05-07 13:52 | 0.16152 | 18.29783 | 11988 ft | 216 kts | 181° |
| 2026-05-07 13:52 | 0.14652 | 18.29639 | 11988 ft | 217 kts | 181° |
| 2026-05-07 13:52 | 0.13148 | 18.29496 | 11987 ft | 218 kts | 181° |
| 2026-05-07 13:52 | 0.11658 | 18.29353 | 11992 ft | 218 kts | 181° |
| 2026-05-07 13:53 | 0.10143 | 18.29209 | 11996 ft | 219 kts | 181° |
| 2026-05-07 13:53 | 0.08620 | 18.29063 | 11984 ft | 220 kts | 181° |
| 2026-05-07 13:53 | 0.07093 | 18.28918 | 11987 ft | 221 kts | 181° |
| 2026-05-07 13:53 | 0.05561 | 18.28773 | 11984 ft | 221 kts | 181° |
| 2026-05-07 13:54 | 0.04035 | 18.28523 | 11955 ft | 226 kts | 196° |
| 2026-05-07 13:54 | 0.02673 | 18.27748 | 11986 ft | 227 kts | 214° |
| 2026-05-07 13:54 | 0.01397 | 18.26809 | 11978 ft | 228 kts | 213° |
| 2026-05-07 13:54 | 0.00073 | 18.25933 | 11987 ft | 228 kts | 210° |
| 2026-05-07 13:55 | -0.01246 | 18.25091 | 11982 ft | 228 kts | 210° |
| 2026-05-07 13:55 | -0.02577 | 18.24224 | 11985 ft | 229 kts | 211° |
| 2026-05-07 13:55 | -0.03911 | 18.23353 | 11986 ft | 229 kts | 211° |
| 2026-05-07 13:55 | -0.05245 | 18.22483 | 11983 ft | 229 kts | 211° |
| 2026-05-07 13:56 | -0.06581 | 18.21611 | 11983 ft | 230 kts | 210° |
| 2026-05-07 13:56 | -0.07921 | 18.20738 | 11985 ft | 230 kts | 210° |
| 2026-05-07 13:56 | -0.09261 | 18.19866 | 11986 ft | 230 kts | 210° |
| 2026-05-07 13:56 | -0.10603 | 18.18990 | 11985 ft | 230 kts | 210° |
| 2026-05-07 13:57 | -0.11945 | 18.18115 | 11986 ft | 230 kts | 210° |
| 2026-05-07 13:57 | -0.13271 | 18.17250 | 11985 ft | 231 kts | 210° |
| 2026-05-07 13:57 | -0.14617 | 18.16373 | 11988 ft | 231 kts | 210° |
| 2026-05-07 13:57 | -0.15967 | 18.15493 | 11985 ft | 232 kts | 210° |
| 2026-05-07 13:58 | -0.17317 | 18.14611 | 11987 ft | 232 kts | 211° |
| 2026-05-07 13:58 | -0.18669 | 18.13732 | 11987 ft | 232 kts | 210° |
| 2026-05-07 13:58 | -0.20021 | 18.12851 | 11988 ft | 232 kts | 211° |
| 2026-05-07 13:58 | -0.21373 | 18.11969 | 11981 ft | 232 kts | 210° |
| 2026-05-07 13:59 | -0.22727 | 18.11086 | 11982 ft | 232 kts | 210° |
| 2026-05-07 13:59 | -0.24062 | 18.10215 | 11981 ft | 232 kts | 210° |
| 2026-05-07 13:59 | -0.25416 | 18.09333 | 11983 ft | 232 kts | 210° |
| 2026-05-07 13:59 | -0.26771 | 18.08449 | 11981 ft | 232 kts | 210° |
| 2026-05-07 14:00 | -0.28126 | 18.07566 | 11982 ft | 233 kts | 210° |
| 2026-05-07 14:00 | -0.29481 | 18.06683 | 11983 ft | 232 kts | 210° |
| 2026-05-07 14:00 | -0.30836 | 18.05800 | 11983 ft | 233 kts | 210° |
| 2026-05-07 14:00 | -0.32190 | 18.04916 | 11984 ft | 233 kts | 210° |
| 2026-05-07 14:01 | -0.33547 | 18.04033 | 11980 ft | 233 kts | 210° |
| 2026-05-07 14:01 | -0.34904 | 18.03147 | 11984 ft | 233 kts | 210° |
| 2026-05-07 14:01 | -0.36245 | 18.02274 | 11988 ft | 233 kts | 210° |
| 2026-05-07 14:01 | -0.37602 | 18.01388 | 11987 ft | 233 kts | 210° |
| 2026-05-07 14:02 | -0.38961 | 18.00503 | 11987 ft | 233 kts | 210° |
| 2026-05-07 14:02 | -0.40321 | 17.99615 | 11985 ft | 233 kts | 210° |
| 2026-05-07 14:02 | -0.41682 | 17.98729 | 11985 ft | 234 kts | 210° |
| 2026-05-07 14:02 | -0.43047 | 17.97839 | 11991 ft | 234 kts | 210° |
| 2026-05-07 14:03 | -0.44417 | 17.96946 | 11987 ft | 236 kts | 210° |
| 2026-05-07 14:03 | -0.45788 | 17.96050 | 11986 ft | 235 kts | 210° |
| 2026-05-07 14:03 | -0.47160 | 17.95158 | 11983 ft | 235 kts | 210° |
| 2026-05-07 14:03 | -0.48512 | 17.94276 | 11984 ft | 235 kts | 210° |
| 2026-05-07 14:04 | -0.49883 | 17.93383 | 11983 ft | 235 kts | 210° |
| 2026-05-07 14:04 | -0.51252 | 17.92488 | 11980 ft | 235 kts | 210° |
| 2026-05-07 14:04 | -0.52623 | 17.91595 | 11981 ft | 235 kts | 210° |
| 2026-05-07 14:04 | -0.53993 | 17.90702 | 11982 ft | 235 kts | 210° |
| 2026-05-07 14:05 | -0.55363 | 17.89810 | 11981 ft | 235 kts | 210° |
| 2026-05-07 14:05 | -0.56731 | 17.88916 | 11986 ft | 235 kts | 210° |
| 2026-05-07 14:05 | -0.58097 | 17.88026 | 11988 ft | 235 kts | 210° |
| 2026-05-07 14:05 | -0.59468 | 17.87133 | 11983 ft | 236 kts | 210° |
| 2026-05-07 14:06 | -0.60827 | 17.86247 | 11987 ft | 237 kts | 210° |
| 2026-05-07 14:06 | -0.62205 | 17.85347 | 11987 ft | 236 kts | 210° |
| 2026-05-07 14:06 | -0.63582 | 17.84450 | 11987 ft | 236 kts | 210° |
| 2026-05-07 14:06 | -0.64961 | 17.83551 | 11987 ft | 238 kts | 210° |
| 2026-05-07 14:07 | -0.66351 | 17.82649 | 11982 ft | 238 kts | 210° |
| 2026-05-07 14:07 | -0.67750 | 17.81759 | 11987 ft | 239 kts | 210° |
| 2026-05-07 14:07 | -0.69154 | 17.80861 | 11980 ft | 240 kts | 210° |
| 2026-05-07 14:07 | -0.70562 | 17.79958 | 11983 ft | 241 kts | 210° |
| 2026-05-07 14:08 | -0.71967 | 17.79056 | 11985 ft | 240 kts | 210° |
| 2026-05-07 14:08 | -0.73351 | 17.78169 | 11986 ft | 239 kts | 210° |
| 2026-05-07 14:08 | -0.74751 | 17.77272 | 11987 ft | 239 kts | 210° |
| 2026-05-07 14:08 | -0.76147 | 17.76376 | 11978 ft | 238 kts | 210° |
| 2026-05-07 14:09 | -0.77542 | 17.75482 | 11980 ft | 238 kts | 210° |
| 2026-05-07 14:09 | -0.78934 | 17.74589 | 11979 ft | 238 kts | 210° |
| 2026-05-07 14:09 | -0.80325 | 17.73697 | 11981 ft | 238 kts | 210° |
| 2026-05-07 14:09 | -0.81715 | 17.72807 | 11977 ft | 237 kts | 210° |
| 2026-05-07 14:10 | -0.83104 | 17.71916 | 11978 ft | 237 kts | 210° |
| 2026-05-07 14:10 | -0.84474 | 17.71038 | 11974 ft | 237 kts | 210° |
| 2026-05-07 14:10 | -0.85857 | 17.70151 | 11975 ft | 236 kts | 210° |
| 2026-05-07 14:10 | -0.87241 | 17.69262 | 11973 ft | 236 kts | 210° |
| 2026-05-07 14:11 | -0.88628 | 17.68374 | 11974 ft | 237 kts | 210° |
| 2026-05-07 14:11 | -0.90018 | 17.67485 | 11977 ft | 238 kts | 210° |
| 2026-05-07 14:11 | -0.91408 | 17.66591 | 11982 ft | 238 kts | 210° |
| 2026-05-07 14:11 | -0.92801 | 17.65699 | 11979 ft | 237 kts | 210° |
| 2026-05-07 14:12 | -0.94189 | 17.64809 | 11978 ft | 237 kts | 210° |
| 2026-05-07 14:12 | -0.95575 | 17.63920 | 11978 ft | 237 kts | 210° |
| 2026-05-07 14:12 | -0.96961 | 17.63031 | 11978 ft | 236 kts | 210° |
| 2026-05-07 14:12 | -0.98324 | 17.62158 | 11976 ft | 236 kts | 210° |
| 2026-05-07 14:13 | -0.99705 | 17.61272 | 11974 ft | 236 kts | 210° |
| 2026-05-07 14:13 | -1.01085 | 17.60387 | 11976 ft | 235 kts | 210° |
| 2026-05-07 14:13 | -1.02462 | 17.59504 | 11976 ft | 235 kts | 210° |
| 2026-05-07 14:13 | -1.03840 | 17.58622 | 11973 ft | 235 kts | 210° |
| 2026-05-07 14:14 | -1.05214 | 17.57739 | 11973 ft | 235 kts | 210° |
| 2026-05-07 14:14 | -1.06587 | 17.56859 | 11972 ft | 234 kts | 210° |
| 2026-05-07 14:14 | -1.07960 | 17.55978 | 11977 ft | 234 kts | 210° |
| 2026-05-07 14:14 | -1.09313 | 17.55112 | 11979 ft | 234 kts | 210° |
| 2026-05-07 14:15 | -1.10683 | 17.54231 | 11977 ft | 234 kts | 210° |
| 2026-05-07 14:15 | -1.12054 | 17.53353 | 11973 ft | 234 kts | 210° |
| 2026-05-07 14:15 | -1.13421 | 17.52476 | 11973 ft | 234 kts | 210° |
| 2026-05-07 14:15 | -1.14792 | 17.51597 | 11973 ft | 234 kts | 210° |
| 2026-05-07 14:16 | -1.16160 | 17.50720 | 11976 ft | 234 kts | 210° |
| 2026-05-07 14:16 | -1.17532 | 17.49841 | 11972 ft | 234 kts | 210° |
| 2026-05-07 14:16 | -1.18901 | 17.48961 | 11974 ft | 234 kts | 210° |
| 2026-05-07 14:16 | -1.20251 | 17.48096 | 11971 ft | 234 kts | 210° |
| 2026-05-07 14:17 | -1.21621 | 17.47218 | 11971 ft | 234 kts | 210° |
| 2026-05-07 14:17 | -1.22987 | 17.46341 | 11972 ft | 233 kts | 210° |
| 2026-05-07 14:17 | -1.24353 | 17.45466 | 11975 ft | 233 kts | 210° |
| 2026-05-07 14:17 | -1.25719 | 17.44589 | 11976 ft | 233 kts | 210° |
| 2026-05-07 14:18 | -1.27083 | 17.43714 | 11976 ft | 233 kts | 210° |
| 2026-05-07 14:18 | -1.28446 | 17.42840 | 11975 ft | 233 kts | 210° |
| 2026-05-07 14:18 | -1.29809 | 17.41966 | 11973 ft | 233 kts | 210° |
| 2026-05-07 14:18 | -1.31171 | 17.41093 | 11974 ft | 233 kts | 210° |
| 2026-05-07 14:19 | -1.32515 | 17.40230 | 11974 ft | 233 kts | 210° |
| 2026-05-07 14:19 | -1.33877 | 17.39357 | 11975 ft | 233 kts | 210° |
| 2026-05-07 14:19 | -1.35239 | 17.38484 | 11975 ft | 233 kts | 210° |
| 2026-05-07 14:19 | -1.36601 | 17.37610 | 11975 ft | 233 kts | 210° |
| 2026-05-07 14:20 | -1.37965 | 17.36735 | 11976 ft | 233 kts | 210° |
| 2026-05-07 14:20 | -1.39328 | 17.35862 | 11976 ft | 233 kts | 210° |
| 2026-05-07 14:20 | -1.40689 | 17.34986 | 11979 ft | 233 kts | 210° |
| 2026-05-07 14:20 | -1.42052 | 17.34114 | 11978 ft | 233 kts | 210° |
| 2026-05-07 14:21 | -1.43416 | 17.33239 | 11978 ft | 233 kts | 210° |
| 2026-05-07 14:21 | -1.44760 | 17.32375 | 11978 ft | 233 kts | 210° |
| 2026-05-07 14:21 | -1.46121 | 17.31504 | 11979 ft | 232 kts | 210° |
| 2026-05-07 14:21 | -1.47481 | 17.30630 | 11977 ft | 232 kts | 210° |
| 2026-05-07 14:22 | -1.48841 | 17.29759 | 11978 ft | 232 kts | 210° |
| 2026-05-07 14:22 | -1.50200 | 17.28886 | 11979 ft | 232 kts | 210° |
| 2026-05-07 14:22 | -1.51560 | 17.28014 | 11976 ft | 232 kts | 210° |
| 2026-05-07 14:22 | -1.52920 | 17.27141 | 11982 ft | 232 kts | 210° |
| 2026-05-07 14:23 | -1.54280 | 17.26269 | 11980 ft | 232 kts | 210° |
| 2026-05-07 14:23 | -1.55641 | 17.25397 | 11977 ft | 232 kts | 210° |
| 2026-05-07 14:23 | -1.56982 | 17.24535 | 11979 ft | 232 kts | 210° |
| 2026-05-07 14:23 | -1.58343 | 17.23662 | 11982 ft | 232 kts | 210° |
| 2026-05-07 14:24 | -1.59703 | 17.22789 | 11978 ft | 232 kts | 210° |
| 2026-05-07 14:24 | -1.61065 | 17.21917 | 11979 ft | 233 kts | 210° |
| 2026-05-07 14:24 | -1.62425 | 17.21043 | 11980 ft | 233 kts | 210° |
| 2026-05-07 14:24 | -1.63788 | 17.20169 | 11979 ft | 233 kts | 210° |
| 2026-05-07 14:25 | -1.65149 | 17.19295 | 11980 ft | 233 kts | 210° |
| 2026-05-07 14:25 | -1.66510 | 17.18422 | 11982 ft | 232 kts | 210° |
| 2026-05-07 14:25 | -1.67853 | 17.17561 | 11980 ft | 232 kts | 210° |
| 2026-05-07 14:25 | -1.69213 | 17.16688 | 11980 ft | 232 kts | 210° |
| 2026-05-07 14:26 | -1.70573 | 17.15815 | 11980 ft | 232 kts | 211° |
| 2026-05-07 14:26 | -1.71934 | 17.14942 | 11980 ft | 232 kts | 210° |
| 2026-05-07 14:26 | -1.73294 | 17.14069 | 11981 ft | 232 kts | 210° |
| 2026-05-07 14:26 | -1.74654 | 17.13198 | 11981 ft | 232 kts | 211° |
| 2026-05-07 14:27 | -1.76012 | 17.12324 | 11983 ft | 232 kts | 210° |
| 2026-05-07 14:27 | -1.77371 | 17.11453 | 11981 ft | 232 kts | 211° |
| 2026-05-07 14:27 | -1.78729 | 17.10581 | 11981 ft | 232 kts | 211° |
| 2026-05-07 14:27 | -1.80068 | 17.09722 | 11981 ft | 232 kts | 211° |
| 2026-05-07 14:28 | -1.81426 | 17.08850 | 11982 ft | 232 kts | 211° |
| 2026-05-07 14:28 | -1.82784 | 17.07980 | 11981 ft | 232 kts | 211° |
| 2026-05-07 14:28 | -1.84139 | 17.07109 | 11980 ft | 232 kts | 211° |
| 2026-05-07 14:28 | -1.85494 | 17.06240 | 11980 ft | 231 kts | 211° |
| 2026-05-07 14:29 | -1.86850 | 17.05370 | 11983 ft | 231 kts | 211° |
| 2026-05-07 14:29 | -1.88205 | 17.04500 | 11979 ft | 231 kts | 211° |
| 2026-05-07 14:29 | -1.89558 | 17.03631 | 11976 ft | 231 kts | 211° |
| 2026-05-07 14:29 | -1.90895 | 17.02773 | 11978 ft | 231 kts | 211° |
| 2026-05-07 14:30 | -1.92250 | 17.01904 | 11977 ft | 231 kts | 211° |
| 2026-05-07 14:30 | -1.93605 | 17.01034 | 11980 ft | 231 kts | 211° |
| 2026-05-07 14:30 | -1.94958 | 17.00166 | 11979 ft | 231 kts | 211° |
| 2026-05-07 14:30 | -1.96311 | 16.99297 | 11977 ft | 231 kts | 211° |
| 2026-05-07 14:31 | -1.97663 | 16.98429 | 11976 ft | 231 kts | 211° |
| 2026-05-07 14:31 | -1.99015 | 16.97562 | 11979 ft | 231 kts | 211° |
| 2026-05-07 14:31 | -2.00365 | 16.96694 | 11978 ft | 231 kts | 211° |
| 2026-05-07 14:31 | -2.01716 | 16.95829 | 11978 ft | 231 kts | 211° |
| 2026-05-07 14:32 | -2.03066 | 16.94959 | 11976 ft | 231 kts | 211° |
| 2026-05-07 14:32 | -2.04400 | 16.94104 | 11976 ft | 231 kts | 211° |
| 2026-05-07 14:32 | -2.05751 | 16.93238 | 11979 ft | 231 kts | 211° |
| 2026-05-07 14:32 | -2.07102 | 16.92369 | 11974 ft | 231 kts | 211° |
| 2026-05-07 14:33 | -2.08454 | 16.91502 | 11975 ft | 231 kts | 211° |
| 2026-05-07 14:33 | -2.09805 | 16.90634 | 11974 ft | 231 kts | 211° |
| 2026-05-07 14:33 | -2.11157 | 16.89767 | 11975 ft | 231 kts | 211° |
| 2026-05-07 14:33 | -2.12508 | 16.88899 | 11973 ft | 231 kts | 211° |
| 2026-05-07 14:34 | -2.13860 | 16.88030 | 11975 ft | 231 kts | 211° |
| 2026-05-07 14:34 | -2.15211 | 16.87163 | 11978 ft | 231 kts | 211° |
| 2026-05-07 14:34 | -2.16545 | 16.86307 | 11978 ft | 231 kts | 211° |
| 2026-05-07 14:34 | -2.17898 | 16.85439 | 11981 ft | 231 kts | 211° |
| 2026-05-07 14:35 | -2.19249 | 16.84571 | 11978 ft | 231 kts | 211° |
| 2026-05-07 14:35 | -2.20601 | 16.83702 | 11980 ft | 231 kts | 211° |
| 2026-05-07 14:35 | -2.21953 | 16.82835 | 11983 ft | 231 kts | 211° |
| 2026-05-07 14:35 | -2.23303 | 16.81967 | 11984 ft | 231 kts | 211° |
| 2026-05-07 14:36 | -2.24662 | 16.81095 | 11986 ft | 232 kts | 211° |
| 2026-05-07 14:36 | -2.26025 | 16.80220 | 11990 ft | 233 kts | 211° |
| 2026-05-07 14:36 | -2.27373 | 16.79354 | 11990 ft | 234 kts | 211° |
| 2026-05-07 14:36 | -2.28741 | 16.78474 | 11990 ft | 234 kts | 211° |
| 2026-05-07 14:37 | -2.30108 | 16.77598 | 11984 ft | 233 kts | 211° |
| 2026-05-07 14:37 | -2.32841 | 16.75841 | 11991 ft | 234 kts | 211° |
| 2026-05-07 14:37 | -2.34211 | 16.74961 | 11993 ft | 234 kts | 211° |
| 2026-05-07 14:38 | -2.35577 | 16.74083 | 11995 ft | 234 kts | 211° |
| 2026-05-07 14:38 | -2.36948 | 16.73202 | 11987 ft | 235 kts | 211° |
| 2026-05-07 14:38 | -2.38321 | 16.72318 | 11990 ft | 235 kts | 211° |
| 2026-05-07 14:38 | -2.39672 | 16.71448 | 11991 ft | 234 kts | 211° |
| 2026-05-07 14:39 | -2.41041 | 16.70569 | 11991 ft | 234 kts | 211° |
| 2026-05-07 14:39 | -2.42409 | 16.69688 | 11991 ft | 234 kts | 212° |
| 2026-05-07 14:39 | -2.43781 | 16.68805 | 11990 ft | 235 kts | 211° |
| 2026-05-07 14:39 | -2.45163 | 16.67920 | 11995 ft | 236 kts | 211° |
| 2026-05-07 14:40 | -2.46547 | 16.67030 | 11988 ft | 237 kts | 212° |
| 2026-05-07 14:40 | -2.47927 | 16.66140 | 11988 ft | 236 kts | 211° |
| 2026-05-07 14:40 | -2.49306 | 16.65254 | 11988 ft | 235 kts | 211° |
| 2026-05-07 14:40 | -2.50681 | 16.64370 | 11985 ft | 235 kts | 211° |
| 2026-05-07 14:41 | -2.52054 | 16.63486 | 11988 ft | 234 kts | 211° |
| 2026-05-07 14:41 | -2.53408 | 16.62617 | 11987 ft | 235 kts | 211° |
| 2026-05-07 14:41 | -2.54778 | 16.61733 | 11986 ft | 234 kts | 211° |
| 2026-05-07 14:41 | -2.56149 | 16.60853 | 11989 ft | 234 kts | 211° |
| 2026-05-07 14:42 | -2.57514 | 16.59974 | 11985 ft | 233 kts | 212° |
| 2026-05-07 14:42 | -2.58879 | 16.59095 | 11988 ft | 233 kts | 211° |
| 2026-05-07 14:42 | -2.60247 | 16.58216 | 11988 ft | 234 kts | 211° |
| 2026-05-07 14:42 | -2.61618 | 16.57335 | 11993 ft | 235 kts | 211° |
| 2026-05-07 14:43 | -2.62994 | 16.56449 | 11995 ft | 235 kts | 211° |
| 2026-05-07 14:43 | -2.64367 | 16.55566 | 11993 ft | 235 kts | 211° |
| 2026-05-07 14:43 | -2.65723 | 16.54694 | 11996 ft | 234 kts | 211° |
| 2026-05-07 14:43 | -2.67093 | 16.53812 | 11993 ft | 234 kts | 211° |
| 2026-05-07 14:44 | -2.68461 | 16.52931 | 11993 ft | 234 kts | 211° |
| 2026-05-07 14:44 | -2.69829 | 16.52052 | 11993 ft | 234 kts | 211° |
| 2026-05-07 14:44 | -2.71196 | 16.51172 | 11989 ft | 233 kts | 211° |
| 2026-05-07 14:44 | -2.72560 | 16.50295 | 11991 ft | 233 kts | 211° |
| 2026-05-07 14:45 | -2.73924 | 16.49416 | 11989 ft | 233 kts | 211° |
| 2026-05-07 14:45 | -2.74825 | 16.48837 | 11989 ft | 233 kts | 211° |
| 2026-05-07 14:45 | -2.76627 | 16.47678 | 11985 ft | 232 kts | 211° |
| 2026-05-07 14:45 | -2.77985 | 16.46803 | 11989 ft | 232 kts | 211° |
| 2026-05-07 14:46 | -2.79341 | 16.45930 | 11989 ft | 232 kts | 211° |
| 2026-05-07 14:46 | -2.80699 | 16.45058 | 11988 ft | 232 kts | 211° |
| 2026-05-07 14:46 | -2.82056 | 16.44183 | 11987 ft | 232 kts | 211° |
| 2026-05-07 14:46 | -2.82954 | 16.43606 | 11987 ft | 232 kts | 211° |
| 2026-05-07 14:47 | -2.84309 | 16.42735 | 11991 ft | 232 kts | 211° |
| 2026-05-07 14:47 | -2.85664 | 16.41861 | 11989 ft | 232 kts | 211° |
| 2026-05-07 14:47 | -2.87020 | 16.40990 | 11989 ft | 231 kts | 211° |
| 2026-05-07 14:47 | -2.88811 | 16.39835 | 11991 ft | 231 kts | 211° |
| 2026-05-07 14:48 | -2.90163 | 16.38966 | 11993 ft | 231 kts | 211° |
| 2026-05-07 14:48 | -2.91516 | 16.38095 | 11993 ft | 231 kts | 211° |
| 2026-05-07 14:48 | -2.92412 | 16.37518 | 11992 ft | 231 kts | 212° |
| 2026-05-07 14:48 | -2.93763 | 16.36648 | 11992 ft | 231 kts | 211° |
| 2026-05-07 14:49 | -2.95115 | 16.35779 | 11991 ft | 231 kts | 211° |
| 2026-05-07 14:49 | -2.96463 | 16.34911 | 11992 ft | 231 kts | 211° |
| 2026-05-07 14:49 | -2.97812 | 16.34042 | 11993 ft | 231 kts | 211° |
| 2026-05-07 14:49 | -2.99159 | 16.33175 | 11991 ft | 230 kts | 211° |
| 2026-05-07 14:50 | -3.00507 | 16.32306 | 11991 ft | 230 kts | 211° |
| 2026-05-07 14:50 | -3.01854 | 16.31440 | 11993 ft | 230 kts | 212° |
| 2026-05-07 14:50 | -3.03199 | 16.30573 | 11992 ft | 230 kts | 211° |
| 2026-05-07 14:50 | -3.04526 | 16.29720 | 11989 ft | 230 kts | 212° |
| 2026-05-07 14:51 | -3.05871 | 16.28853 | 11993 ft | 230 kts | 211° |
| 2026-05-07 14:51 | -3.07217 | 16.27987 | 11991 ft | 230 kts | 211° |
| 2026-05-07 14:51 | -3.08561 | 16.27120 | 11991 ft | 230 kts | 211° |
| 2026-05-07 14:51 | -3.09908 | 16.26255 | 11994 ft | 230 kts | 212° |
| 2026-05-07 14:52 | -3.11251 | 16.25388 | 11993 ft | 230 kts | 211° |
| 2026-05-07 14:52 | -3.12594 | 16.24525 | 11994 ft | 229 kts | 212° |
| 2026-05-07 14:52 | -3.13936 | 16.23660 | 11994 ft | 229 kts | 211° |
| 2026-05-07 14:52 | -3.15259 | 16.22807 | 11993 ft | 229 kts | 212° |
| 2026-05-07 14:53 | -3.16598 | 16.21945 | 11993 ft | 229 kts | 211° |
| 2026-05-07 14:53 | -3.17940 | 16.21081 | 11993 ft | 229 kts | 211° |
| 2026-05-07 14:53 | -3.19281 | 16.20218 | 11992 ft | 229 kts | 211° |
| 2026-05-07 14:53 | -3.20621 | 16.19354 | 11994 ft | 229 kts | 211° |
| 2026-05-07 14:54 | -3.21964 | 16.18488 | 11994 ft | 229 kts | 211° |
| 2026-05-07 14:54 | -3.23305 | 16.17625 | 11996 ft | 229 kts | 211° |
| 2026-05-07 14:54 | -3.24644 | 16.16762 | 11994 ft | 229 kts | 211° |
| 2026-05-07 14:54 | -3.25983 | 16.15900 | 11993 ft | 229 kts | 211° |
| 2026-05-07 14:55 | -3.27306 | 16.15049 | 11999 ft | 229 kts | 211° |
| 2026-05-07 14:55 | -3.28646 | 16.14184 | 11995 ft | 229 kts | 211° |
| 2026-05-07 14:55 | -3.29987 | 16.13322 | 11995 ft | 229 kts | 211° |
| 2026-05-07 14:55 | -3.31326 | 16.12458 | 11998 ft | 229 kts | 211° |
| 2026-05-07 14:56 | -3.32665 | 16.11593 | 12000 ft | 229 kts | 211° |
| 2026-05-07 14:56 | -3.34006 | 16.10727 | 11999 ft | 229 kts | 211° |
| 2026-05-07 14:56 | -3.35345 | 16.09863 | 11998 ft | 229 kts | 211° |
| 2026-05-07 14:56 | -3.36684 | 16.08998 | 11999 ft | 229 kts | 211° |
| 2026-05-07 14:57 | -3.38022 | 16.08133 | 12001 ft | 229 kts | 211° |
| 2026-05-07 14:57 | -3.39343 | 16.07281 | 12002 ft | 229 kts | 211° |
| 2026-05-07 14:57 | -3.40681 | 16.06416 | 12007 ft | 229 kts | 212° |
| 2026-05-07 14:57 | -3.42021 | 16.05552 | 12003 ft | 229 kts | 211° |
| 2026-05-07 14:58 | -3.43359 | 16.04687 | 12002 ft | 229 kts | 211° |
| 2026-05-07 14:58 | -3.44695 | 16.03824 | 12004 ft | 229 kts | 212° |
| 2026-05-07 14:58 | -3.46033 | 16.02960 | 12006 ft | 229 kts | 212° |
| 2026-05-07 14:58 | -3.47370 | 16.02097 | 12007 ft | 229 kts | 211° |
| 2026-05-07 14:59 | -3.48706 | 16.01234 | 12007 ft | 229 kts | 212° |
| 2026-05-07 14:59 | -3.50043 | 16.00370 | 12007 ft | 229 kts | 212° |
| 2026-05-07 14:59 | -3.51360 | 15.99519 | 12009 ft | 229 kts | 212° |
| 2026-05-07 14:59 | -3.52697 | 15.98655 | 12010 ft | 229 kts | 212° |
| 2026-05-07 15:00 | -3.54035 | 15.97791 | 12010 ft | 229 kts | 212° |
| 2026-05-07 15:00 | -3.55376 | 15.96926 | 12011 ft | 229 kts | 212° |
| 2026-05-07 15:00 | -3.56714 | 15.96059 | 12014 ft | 229 kts | 212° |
| 2026-05-07 15:00 | -3.58052 | 15.95195 | 12012 ft | 229 kts | 212° |
| 2026-05-07 15:01 | -3.59389 | 15.94332 | 12011 ft | 229 kts | 212° |
| 2026-05-07 15:01 | -3.60726 | 15.93468 | 12014 ft | 229 kts | 212° |
| 2026-05-07 15:01 | -3.62043 | 15.92616 | 12012 ft | 229 kts | 212° |
| 2026-05-07 15:01 | -3.63379 | 15.91754 | 12015 ft | 229 kts | 212° |
| 2026-05-07 15:02 | -3.64715 | 15.90890 | 12016 ft | 228 kts | 212° |
| 2026-05-07 15:02 | -3.66051 | 15.90027 | 12014 ft | 228 kts | 212° |
| 2026-05-07 15:02 | -3.67384 | 15.89165 | 12013 ft | 228 kts | 212° |
| 2026-05-07 15:02 | -3.68719 | 15.88303 | 12019 ft | 228 kts | 212° |
| 2026-05-07 15:03 | -3.70051 | 15.87441 | 12019 ft | 228 kts | 212° |
| 2026-05-07 15:03 | -3.71385 | 15.86580 | 12016 ft | 228 kts | 212° |
| 2026-05-07 15:03 | -3.72715 | 15.85720 | 12014 ft | 227 kts | 211° |
| 2026-05-07 15:03 | -3.74023 | 15.84874 | 12011 ft | 227 kts | 212° |
| 2026-05-07 15:04 | -3.75348 | 15.84017 | 12014 ft | 227 kts | 212° |
| 2026-05-07 15:04 | -3.76677 | 15.83160 | 12013 ft | 227 kts | 212° |
| 2026-05-07 15:04 | -3.78005 | 15.82300 | 12012 ft | 227 kts | 212° |
| 2026-05-07 15:04 | -3.79334 | 15.81441 | 12012 ft | 227 kts | 212° |
| 2026-05-07 15:05 | -3.80662 | 15.80582 | 12012 ft | 227 kts | 212° |
| 2026-05-07 15:05 | -3.81991 | 15.79724 | 12023 ft | 227 kts | 212° |
| 2026-05-07 15:05 | -3.83320 | 15.78864 | 12026 ft | 227 kts | 212° |
| 2026-05-07 15:05 | -3.84648 | 15.78005 | 12022 ft | 227 kts | 212° |
| 2026-05-07 15:06 | -3.85958 | 15.77158 | 12023 ft | 227 kts | 212° |
| 2026-05-07 15:06 | -3.87286 | 15.76299 | 12024 ft | 227 kts | 212° |
| 2026-05-07 15:06 | -3.88614 | 15.75441 | 12024 ft | 227 kts | 212° |
| 2026-05-07 15:06 | -3.89943 | 15.74582 | 12023 ft | 227 kts | 212° |
| 2026-05-07 15:07 | -3.91273 | 15.73721 | 11953 ft | 230 kts | 212° |
| 2026-05-07 15:07 | -3.92673 | 15.72817 | 11469 ft | 248 kts | 212° |
| 2026-05-07 15:07 | -3.94158 | 15.71856 | 11054 ft | 260 kts | 212° |
| 2026-05-07 15:07 | -3.95700 | 15.70858 | 10659 ft | 268 kts | 212° |
| 2026-05-07 15:08 | -3.97265 | 15.69847 | 10276 ft | 274 kts | 212° |
| 2026-05-07 15:08 | -3.98882 | 15.68800 | 9912 ft | 279 kts | 212° |
| 2026-05-07 15:08 | -4.00525 | 15.67737 | 9521 ft | 283 kts | 212° |
| 2026-05-07 15:08 | -4.02186 | 15.66663 | 9123 ft | 285 kts | 212° |
| 2026-05-07 15:09 | -4.03859 | 15.65581 | 8745 ft | 287 kts | 213° |
| 2026-05-07 15:09 | -4.05544 | 15.64489 | 8372 ft | 289 kts | 213° |
| 2026-05-07 15:09 | -4.07234 | 15.63397 | 8006 ft | 290 kts | 213° |
| 2026-05-07 15:09 | -4.08930 | 15.62300 | 7651 ft | 290 kts | 213° |
| 2026-05-07 15:10 | -4.10628 | 15.61200 | 7296 ft | 291 kts | 213° |
| 2026-05-07 15:10 | -4.12306 | 15.60114 | 6942 ft | 291 kts | 213° |
| 2026-05-07 15:10 | -4.14006 | 15.59015 | 6609 ft | 291 kts | 213° |
| 2026-05-07 15:10 | -4.15706 | 15.57914 | 6273 ft | 290 kts | 213° |
| 2026-05-07 15:11 | -4.17393 | 15.56823 | 5923 ft | 287 kts | 213° |
| 2026-05-07 15:11 | -4.19097 | 15.55812 | 5556 ft | 283 kts | 205° |
| 2026-05-07 15:11 | -4.20965 | 15.55221 | 5190 ft | 280 kts | 194° |
| 2026-05-07 15:11 | -4.22858 | 15.54783 | 4856 ft | 278 kts | 193° |
| 2026-05-07 15:12 | -4.24734 | 15.54372 | 4502 ft | 275 kts | 193° |
| 2026-05-07 15:12 | -4.26600 | 15.53967 | 4149 ft | 273 kts | 193° |
| 2026-05-07 15:12 | -4.28427 | 15.53569 | 3804 ft | 271 kts | 194° |
| 2026-05-07 15:12 | -4.30225 | 15.53063 | 3468 ft | 265 kts | 200° |
| 2026-05-07 15:13 | -4.31902 | 15.52348 | 3115 ft | 259 kts | 208° |
| 2026-05-07 15:13 | -4.33427 | 15.51428 | 2744 ft | 254 kts | 216° |
| 2026-05-07 15:13 | -4.34766 | 15.50306 | 2370 ft | 249 kts | 226° |
| 2026-05-07 15:13 | -4.35817 | 15.48942 | 1988 ft | 246 kts | 239° |
| 2026-05-07 15:14 | -4.36664 | 15.47455 | 1628 ft | 245 kts | 240° |
| 2026-05-07 15:14 | -4.37530 | 15.46037 | 1682 ft | 228 kts | 237° |
| 2026-05-07 15:14 | -4.38359 | 15.44788 | 1719 ft | 210 kts | 237° |
| 2026-05-07 15:14 | -4.39128 | 15.43606 | 1811 ft | 191 kts | 238° |
| 2026-05-07 15:15 | -4.39790 | 15.42573 | 2107 ft | 163 kts | 239° |
| 2026-05-07 15:15 | -4.40372 | 15.41668 | 2202 ft | 148 kts | 238° |
| 2026-05-07 15:15 | -4.40911 | 15.40830 | 2208 ft | 139 kts | 238° |
| 2026-05-07 15:15 | -4.41527 | 15.40117 | 1994 ft | 140 kts | 209° |
| 2026-05-07 15:16 | -4.42517 | 15.40159 | 1542 ft | 152 kts | 142° |
| 2026-05-07 15:16 | -4.42859 | 15.41018 | 1567 ft | 131 kts | 73° |
| 2026-05-07 15:16 | -4.42265 | 15.41599 | 1671 ft | 126 kts | 9° |
| 2026-05-07 15:16 | -4.41523 | 15.41234 | 1642 ft | 130 kts | 294° |
| 2026-05-07 15:17 | -4.41708 | 15.40404 | 1473 ft | 128 kts | 210° |
| 2026-05-07 15:17 | -4.42211 | 15.40270 | 1013 ft | 0 kts | 37° |